NCR48W RPLC-RKSI
Flight info
| Callsign | NCR48W |
|---|---|
| Flight time | 3h 12m |
| Altitude | 35000 |
| Route | RIANO5P RIANO TR25 CAB N884 ALBAX Y531 YURIX Y27 RUSAR Y579 RUGMA/N0496F360 Z85 BILUM/N0492F370 DCT MELES/N0494F360 DCT OLMEN OLMEN2E |
| Aircraft | B744/H-SDE3FGHIM1M2RWXY/LB1 |
Departure
| Time | 2026-04-22 11:01 |
|---|---|
| Airport | Clark International Airport / Clark Air Base (RPLC) |
Arrival
| Time | 2026-04-22 14:13 |
|---|---|
| Airport | Incheon International Airport (RKSI) |
| Time | Latitude | Longitude | Altitude | Speed | Heading |
|---|---|---|---|---|---|
| 2026-04-22 10:32 | 15.19298 | 120.56125 | 497 ft | 0 kts | 111° |
| 2026-04-22 10:47 | 15.19298 | 120.56126 | 497 ft | 0 kts | 112° |
| 2026-04-22 10:48 | 15.19298 | 120.56127 | 497 ft | 0 kts | 112° |
| 2026-04-22 10:48 | 15.19297 | 120.56127 | 497 ft | 0 kts | 112° |
| 2026-04-22 10:48 | 15.19296 | 120.56131 | 497 ft | 4 kts | 117° |
| 2026-04-22 10:49 | 15.19274 | 120.56136 | 497 ft | 4 kts | 211° |
| 2026-04-22 10:49 | 15.19265 | 120.56081 | 497 ft | 15 kts | 276° |
| 2026-04-22 10:49 | 15.19238 | 120.55977 | 497 ft | 17 kts | 203° |
| 2026-04-22 10:49 | 15.19133 | 120.56003 | 497 ft | 21 kts | 117° |
| 2026-04-22 10:50 | 15.19138 | 120.56156 | 497 ft | 22 kts | 25° |
| 2026-04-22 10:50 | 15.19260 | 120.56203 | 497 ft | 17 kts | 21° |
| 2026-04-22 10:50 | 15.19396 | 120.56258 | 497 ft | 27 kts | 22° |
| 2026-04-22 10:50 | 15.19522 | 120.56308 | 497 ft | 19 kts | 21° |
| 2026-04-22 10:51 | 15.19619 | 120.56349 | 497 ft | 17 kts | 25° |
| 2026-04-22 10:51 | 15.19704 | 120.56385 | 497 ft | 13 kts | 20° |
| 2026-04-22 10:51 | 15.19791 | 120.56420 | 497 ft | 12 kts | 21° |
| 2026-04-22 10:51 | 15.19867 | 120.56450 | 497 ft | 6 kts | 22° |
| 2026-04-22 10:52 | 15.19931 | 120.56475 | 497 ft | 9 kts | 20° |
| 2026-04-22 10:52 | 15.20001 | 120.56502 | 497 ft | 11 kts | 19° |
| 2026-04-22 10:52 | 15.20076 | 120.56531 | 497 ft | 11 kts | 21° |
| 2026-04-22 10:52 | 15.20128 | 120.56581 | 497 ft | 12 kts | 68° |
| 2026-04-22 10:53 | 15.20143 | 120.56647 | 497 ft | 7 kts | 81° |
| 2026-04-22 10:53 | 15.20145 | 120.56661 | 497 ft | 0 kts | 81° |
| 2026-04-22 10:56 | 15.20146 | 120.56665 | 497 ft | 2 kts | 81° |
| 2026-04-22 10:56 | 15.20149 | 120.56690 | 497 ft | 3 kts | 81° |
| 2026-04-22 10:57 | 15.20151 | 120.56703 | 497 ft | 0 kts | 82° |
| 2026-04-22 10:58 | 15.20151 | 120.56704 | 497 ft | 0 kts | 82° |
| 2026-04-22 10:59 | 15.20156 | 120.56746 | 497 ft | 15 kts | 95° |
| 2026-04-22 10:59 | 15.20126 | 120.56845 | 497 ft | 10 kts | 126° |
| 2026-04-22 10:59 | 15.20064 | 120.56830 | 497 ft | 18 kts | 209° |
| 2026-04-22 11:00 | 15.19990 | 120.56797 | 497 ft | 0 kts | 198° |
| 2026-04-22 11:00 | 15.19989 | 120.56797 | 497 ft | 0 kts | 198° |
| 2026-04-22 11:00 | 15.19975 | 120.56792 | 497 ft | 10 kts | 199° |
| 2026-04-22 11:00 | 15.19758 | 120.56705 | 497 ft | 78 kts | 201° |
| 2026-04-22 11:01 | 15.19476 | 120.56593 | 498 ft | 119 kts | 201° |
| 2026-04-22 11:01 | 15.18489 | 120.56199 | 516 ft | 177 kts | 201° |
| 2026-04-22 11:01 | 15.17194 | 120.55682 | 1243 ft | 204 kts | 201° |
| 2026-04-22 11:01 | 15.15843 | 120.55149 | 2245 ft | 210 kts | 201° |
| 2026-04-22 11:02 | 15.14448 | 120.54599 | 2773 ft | 223 kts | 201° |
| 2026-04-22 11:02 | 15.12936 | 120.54002 | 3159 ft | 237 kts | 201° |
| 2026-04-22 11:02 | 15.11332 | 120.53609 | 3634 ft | 240 kts | 179° |
| 2026-04-22 11:02 | 15.09725 | 120.54073 | 3899 ft | 243 kts | 150° |
| 2026-04-22 11:03 | 15.08533 | 120.55333 | 4120 ft | 258 kts | 121° |
| 2026-04-22 11:03 | 15.08015 | 120.57127 | 4361 ft | 265 kts | 94° |
| 2026-04-22 11:03 | 15.08337 | 120.58997 | 4615 ft | 267 kts | 68° |
| 2026-04-22 11:03 | 15.09392 | 120.60570 | 4905 ft | 267 kts | 45° |
| 2026-04-22 11:04 | 15.10853 | 120.61741 | 5181 ft | 267 kts | 32° |
| 2026-04-22 11:04 | 15.12482 | 120.62706 | 5450 ft | 280 kts | 27° |
| 2026-04-22 11:04 | 15.14318 | 120.63661 | 5740 ft | 308 kts | 24° |
| 2026-04-22 11:04 | 15.16363 | 120.64702 | 6008 ft | 339 kts | 24° |
| 2026-04-22 11:05 | 15.18503 | 120.65859 | 6268 ft | 368 kts | 26° |
| 2026-04-22 11:05 | 15.20842 | 120.67179 | 6526 ft | 394 kts | 26° |
| 2026-04-22 11:05 | 15.23244 | 120.68609 | 6768 ft | 401 kts | 32° |
| 2026-04-22 11:05 | 15.25389 | 120.70476 | 7023 ft | 406 kts | 41° |
| 2026-04-22 11:06 | 15.27323 | 120.72629 | 7275 ft | 410 kts | 47° |
| 2026-04-22 11:06 | 15.29189 | 120.74932 | 7529 ft | 414 kts | 48° |
| 2026-04-22 11:06 | 15.31082 | 120.77191 | 7781 ft | 415 kts | 46° |
| 2026-04-22 11:06 | 15.32990 | 120.79383 | 8072 ft | 416 kts | 46° |
| 2026-04-22 11:07 | 15.34904 | 120.81635 | 8372 ft | 418 kts | 49° |
| 2026-04-22 11:07 | 15.36673 | 120.84088 | 8677 ft | 421 kts | 53° |
| 2026-04-22 11:07 | 15.38278 | 120.86597 | 8975 ft | 424 kts | 56° |
| 2026-04-22 11:07 | 15.39856 | 120.89183 | 9275 ft | 426 kts | 56° |
| 2026-04-22 11:08 | 15.41448 | 120.91762 | 9636 ft | 428 kts | 56° |
| 2026-04-22 11:08 | 15.43111 | 120.94395 | 9886 ft | 429 kts | 54° |
| 2026-04-22 11:08 | 15.44731 | 120.96936 | 10182 ft | 431 kts | 55° |
| 2026-04-22 11:08 | 15.46420 | 120.99568 | 10484 ft | 433 kts | 53° |
| 2026-04-22 11:09 | 15.48487 | 121.01803 | 10770 ft | 432 kts | 37° |
| 2026-04-22 11:09 | 15.50963 | 121.03566 | 11081 ft | 430 kts | 30° |
| 2026-04-22 11:09 | 15.53562 | 121.05107 | 11382 ft | 431 kts | 26° |
| 2026-04-22 11:09 | 15.56267 | 121.06526 | 11687 ft | 431 kts | 23° |
| 2026-04-22 11:10 | 15.58956 | 121.07842 | 11985 ft | 433 kts | 22° |
| 2026-04-22 11:10 | 15.61688 | 121.09158 | 12108 ft | 434 kts | 22° |
| 2026-04-22 11:10 | 15.64432 | 121.10493 | 12123 ft | 435 kts | 22° |
| 2026-04-22 11:10 | 15.67203 | 121.11852 | 12235 ft | 438 kts | 22° |
| 2026-04-22 11:11 | 15.69961 | 121.13212 | 13120 ft | 441 kts | 22° |
| 2026-04-22 11:11 | 15.72739 | 121.14587 | 14023 ft | 444 kts | 22° |
| 2026-04-22 11:11 | 15.75538 | 121.15974 | 14876 ft | 448 kts | 22° |
| 2026-04-22 11:11 | 15.78401 | 121.17396 | 15680 ft | 453 kts | 23° |
| 2026-04-22 11:12 | 15.81262 | 121.18812 | 16428 ft | 458 kts | 22° |
| 2026-04-22 11:12 | 15.84158 | 121.20248 | 17156 ft | 463 kts | 22° |
| 2026-04-22 11:12 | 15.87078 | 121.21697 | 17859 ft | 467 kts | 22° |
| 2026-04-22 11:12 | 15.90065 | 121.23181 | 18308 ft | 471 kts | 23° |
| 2026-04-22 11:13 | 15.92992 | 121.24636 | 18706 ft | 475 kts | 23° |
| 2026-04-22 11:13 | 15.96025 | 121.26146 | 19114 ft | 479 kts | 23° |
| 2026-04-22 11:13 | 15.99046 | 121.27650 | 19746 ft | 482 kts | 23° |
| 2026-04-22 11:13 | 16.02085 | 121.29163 | 20407 ft | 486 kts | 23° |
| 2026-04-22 11:14 | 16.05100 | 121.30666 | 21033 ft | 490 kts | 23° |
| 2026-04-22 11:14 | 16.08229 | 121.32225 | 21642 ft | 494 kts | 23° |
| 2026-04-22 11:14 | 16.11341 | 121.33777 | 22229 ft | 498 kts | 23° |
| 2026-04-22 11:14 | 16.14480 | 121.35343 | 22803 ft | 502 kts | 23° |
| 2026-04-22 11:15 | 16.16757 | 121.36479 | 23200 ft | 505 kts | 23° |
| 2026-04-22 11:15 | 16.17114 | 121.36657 | 23261 ft | 506 kts | 23° |
| 2026-04-22 11:15 | 16.22401 | 121.39297 | 24125 ft | 512 kts | 23° |
| 2026-04-22 11:15 | 16.26470 | 121.41329 | 24739 ft | 517 kts | 23° |
| 2026-04-22 11:16 | 16.36407 | 121.46297 | 26355 ft | 520 kts | 23° |
| 2026-04-22 11:16 | 16.40404 | 121.48297 | 27123 ft | 518 kts | 23° |
| 2026-04-22 11:17 | 16.43272 | 121.49732 | 27609 ft | 517 kts | 23° |
| 2026-04-22 11:17 | 16.46501 | 121.51349 | 28160 ft | 516 kts | 23° |
| 2026-04-22 11:17 | 16.49735 | 121.52969 | 28694 ft | 515 kts | 23° |
| 2026-04-22 11:17 | 16.52967 | 121.54588 | 29210 ft | 514 kts | 23° |
| 2026-04-22 11:18 | 16.56188 | 121.56202 | 29706 ft | 513 kts | 23° |
| 2026-04-22 11:18 | 16.59398 | 121.57812 | 30181 ft | 512 kts | 23° |
| 2026-04-22 11:18 | 16.62610 | 121.59423 | 30641 ft | 511 kts | 23° |
| 2026-04-22 11:18 | 16.65801 | 121.61020 | 31084 ft | 510 kts | 23° |
| 2026-04-22 11:19 | 16.69037 | 121.62642 | 31516 ft | 509 kts | 23° |
| 2026-04-22 11:19 | 16.72195 | 121.64228 | 31925 ft | 508 kts | 23° |
| 2026-04-22 11:19 | 16.75418 | 121.65848 | 32330 ft | 507 kts | 23° |
| 2026-04-22 11:19 | 16.78596 | 121.67447 | 32716 ft | 507 kts | 23° |
| 2026-04-22 11:20 | 16.81770 | 121.69044 | 33091 ft | 506 kts | 23° |
| 2026-04-22 11:20 | 16.84935 | 121.70637 | 33452 ft | 505 kts | 23° |
| 2026-04-22 11:20 | 16.88098 | 121.72230 | 33802 ft | 504 kts | 23° |
| 2026-04-22 11:20 | 16.91257 | 121.73820 | 34140 ft | 504 kts | 23° |
| 2026-04-22 11:21 | 16.94200 | 121.75308 | 34445 ft | 503 kts | 24° |
| 2026-04-22 11:21 | 16.97319 | 121.76950 | 34764 ft | 503 kts | 24° |
| 2026-04-22 11:21 | 17.00438 | 121.78624 | 34955 ft | 503 kts | 24° |
| 2026-04-22 11:22 | 17.06668 | 121.81956 | 34996 ft | 503 kts | 24° |
| 2026-04-22 11:22 | 17.12935 | 121.85301 | 34997 ft | 502 kts | 24° |
| 2026-04-22 11:23 | 17.19164 | 121.88625 | 34997 ft | 502 kts | 24° |
| 2026-04-22 11:23 | 17.25387 | 121.91942 | 34997 ft | 502 kts | 24° |
| 2026-04-22 11:24 | 17.31611 | 121.95256 | 34997 ft | 502 kts | 24° |
| 2026-04-22 11:24 | 17.37800 | 121.98559 | 34997 ft | 502 kts | 24° |
| 2026-04-22 11:25 | 17.43520 | 122.01616 | 34997 ft | 502 kts | 24° |
| 2026-04-22 11:25 | 17.49839 | 122.04995 | 34997 ft | 502 kts | 24° |
| 2026-04-22 11:26 | 17.55771 | 122.08168 | 34997 ft | 502 kts | 24° |
| 2026-04-22 11:26 | 17.61994 | 122.11496 | 34997 ft | 502 kts | 24° |
| 2026-04-22 11:27 | 17.68211 | 122.14831 | 34997 ft | 502 kts | 24° |
| 2026-04-22 11:27 | 17.74489 | 122.18203 | 34997 ft | 502 kts | 24° |
| 2026-04-22 11:28 | 17.80708 | 122.21544 | 34997 ft | 502 kts | 24° |
| 2026-04-22 11:28 | 17.86979 | 122.24882 | 34997 ft | 502 kts | 24° |
| 2026-04-22 11:29 | 17.93285 | 122.28140 | 34997 ft | 502 kts | 24° |
| 2026-04-22 11:29 | 17.99931 | 122.31589 | 34997 ft | 502 kts | 24° |
| 2026-04-22 11:30 | 18.06222 | 122.34863 | 34997 ft | 502 kts | 24° |
| 2026-04-22 11:30 | 18.12487 | 122.38128 | 34997 ft | 502 kts | 24° |
| 2026-04-22 11:31 | 18.18787 | 122.41402 | 34997 ft | 502 kts | 24° |
| 2026-04-22 11:31 | 18.25046 | 122.44659 | 34997 ft | 502 kts | 24° |
| 2026-04-22 11:32 | 18.31287 | 122.47914 | 34997 ft | 502 kts | 24° |
| 2026-04-22 11:32 | 18.37540 | 122.51178 | 34997 ft | 502 kts | 24° |
| 2026-04-22 11:33 | 18.43805 | 122.54452 | 34997 ft | 502 kts | 24° |
| 2026-04-22 11:33 | 18.50062 | 122.57725 | 34997 ft | 502 kts | 24° |
| 2026-04-22 11:34 | 18.77979 | 122.72358 | 34996 ft | 502 kts | 24° |
| 2026-04-22 11:34 | 18.92376 | 122.79929 | 34997 ft | 502 kts | 24° |
| 2026-04-22 11:35 | 18.98663 | 122.83240 | 34997 ft | 502 kts | 24° |
| 2026-04-22 11:35 | 19.60819 | 123.16102 | 34999 ft | 502 kts | 24° |
| 2026-04-22 11:36 | 20.00094 | 123.37027 | 35008 ft | 502 kts | 24° |
| 2026-04-22 11:36 | 20.10124 | 123.42398 | 34997 ft | 502 kts | 24° |
| 2026-04-22 11:37 | 20.16407 | 123.45762 | 34997 ft | 502 kts | 24° |
| 2026-04-22 11:37 | 20.21627 | 123.48559 | 34997 ft | 502 kts | 24° |
| 2026-04-22 11:38 | 20.27856 | 123.51898 | 34997 ft | 502 kts | 24° |
| 2026-04-22 11:38 | 20.37393 | 123.57016 | 34997 ft | 502 kts | 24° |
| 2026-04-22 11:39 | 20.43669 | 123.60389 | 34997 ft | 502 kts | 24° |
| 2026-04-22 11:39 | 20.49899 | 123.63739 | 34997 ft | 502 kts | 24° |
| 2026-04-22 11:40 | 20.56140 | 123.67099 | 34997 ft | 502 kts | 24° |
| 2026-04-22 11:40 | 20.62376 | 123.70459 | 34997 ft | 502 kts | 24° |
| 2026-04-22 11:41 | 20.68608 | 123.73820 | 34997 ft | 502 kts | 24° |
| 2026-04-22 11:41 | 20.74847 | 123.77180 | 34997 ft | 502 kts | 24° |
| 2026-04-22 11:42 | 20.81284 | 123.80657 | 34997 ft | 502 kts | 24° |
| 2026-04-22 11:42 | 20.87429 | 123.83985 | 34997 ft | 502 kts | 24° |
| 2026-04-22 11:43 | 20.93826 | 123.87452 | 34997 ft | 502 kts | 24° |
| 2026-04-22 11:43 | 21.00068 | 123.90836 | 34997 ft | 502 kts | 24° |
| 2026-04-22 11:44 | 21.06295 | 123.94206 | 34997 ft | 502 kts | 24° |
| 2026-04-22 11:44 | 21.12578 | 123.97611 | 34997 ft | 502 kts | 24° |
| 2026-04-22 11:45 | 21.18803 | 124.00991 | 34997 ft | 502 kts | 24° |
| 2026-04-22 11:45 | 21.25123 | 124.04426 | 34997 ft | 502 kts | 24° |
| 2026-04-22 11:46 | 21.31352 | 124.07812 | 34997 ft | 502 kts | 24° |
| 2026-04-22 11:46 | 21.35597 | 124.10110 | 34997 ft | 502 kts | 24° |
| 2026-04-22 11:47 | 21.41826 | 124.13492 | 34997 ft | 502 kts | 24° |
| 2026-04-22 11:47 | 21.47106 | 124.16364 | 34997 ft | 502 kts | 24° |
| 2026-04-22 11:48 | 21.53370 | 124.19778 | 34997 ft | 502 kts | 24° |
| 2026-04-22 11:48 | 21.59593 | 124.23172 | 34997 ft | 502 kts | 24° |
| 2026-04-22 11:49 | 21.65843 | 124.26584 | 34997 ft | 502 kts | 24° |
| 2026-04-22 11:49 | 21.72090 | 124.29999 | 34997 ft | 502 kts | 24° |
| 2026-04-22 11:50 | 21.78315 | 124.33405 | 34997 ft | 502 kts | 24° |
| 2026-04-22 11:50 | 21.84579 | 124.36836 | 34997 ft | 502 kts | 24° |
| 2026-04-22 11:51 | 21.90840 | 124.40268 | 34997 ft | 502 kts | 24° |
| 2026-04-22 11:51 | 21.97088 | 124.43697 | 34997 ft | 502 kts | 24° |
| 2026-04-22 11:52 | 22.00528 | 124.45586 | 34997 ft | 502 kts | 24° |
| 2026-04-22 11:52 | 22.04141 | 124.47572 | 34997 ft | 502 kts | 24° |
| 2026-04-22 11:53 | 22.09988 | 124.50787 | 34997 ft | 502 kts | 24° |
| 2026-04-22 11:53 | 22.16213 | 124.54213 | 34997 ft | 502 kts | 24° |
| 2026-04-22 11:54 | 22.22478 | 124.57665 | 34997 ft | 502 kts | 24° |
| 2026-04-22 11:54 | 22.28698 | 124.61096 | 34997 ft | 502 kts | 24° |
| 2026-04-22 11:55 | 22.34923 | 124.64533 | 34997 ft | 502 kts | 24° |
| 2026-04-22 11:55 | 22.41181 | 124.67991 | 34997 ft | 502 kts | 24° |
| 2026-04-22 11:56 | 22.47394 | 124.71428 | 34997 ft | 502 kts | 24° |
| 2026-04-22 11:56 | 22.53620 | 124.74876 | 34997 ft | 502 kts | 24° |
| 2026-04-22 11:57 | 22.59822 | 124.78314 | 34997 ft | 502 kts | 24° |
| 2026-04-22 11:57 | 22.66080 | 124.81787 | 34997 ft | 502 kts | 24° |
| 2026-04-22 11:58 | 22.72293 | 124.85239 | 34997 ft | 502 kts | 24° |
| 2026-04-22 11:58 | 22.78506 | 124.88693 | 34997 ft | 502 kts | 24° |
| 2026-04-22 11:59 | 22.84709 | 124.92146 | 34997 ft | 502 kts | 25° |
| 2026-04-22 11:59 | 22.90911 | 124.95602 | 34997 ft | 502 kts | 25° |
| 2026-04-22 12:00 | 22.97124 | 124.99068 | 34997 ft | 502 kts | 25° |
| 2026-04-22 12:00 | 23.03335 | 125.02536 | 34997 ft | 502 kts | 25° |
| 2026-04-22 12:01 | 23.09540 | 125.06004 | 34997 ft | 502 kts | 25° |
| 2026-04-22 12:01 | 23.15749 | 125.09479 | 34997 ft | 502 kts | 25° |
| 2026-04-22 12:02 | 23.21988 | 125.12973 | 34997 ft | 502 kts | 25° |
| 2026-04-22 12:02 | 23.28200 | 125.16456 | 34997 ft | 502 kts | 25° |
| 2026-04-22 12:03 | 23.34401 | 125.19926 | 34997 ft | 502 kts | 25° |
| 2026-04-22 12:03 | 23.40606 | 125.23416 | 34997 ft | 502 kts | 25° |
| 2026-04-22 12:04 | 23.46797 | 125.26903 | 34997 ft | 502 kts | 25° |
| 2026-04-22 12:04 | 23.53000 | 125.30399 | 34997 ft | 502 kts | 25° |
| 2026-04-22 12:05 | 23.59237 | 125.33917 | 34997 ft | 502 kts | 25° |
| 2026-04-22 12:05 | 23.65443 | 125.37416 | 34997 ft | 502 kts | 25° |
| 2026-04-22 12:06 | 23.70711 | 125.40393 | 34997 ft | 502 kts | 25° |
| 2026-04-22 12:06 | 23.76915 | 125.43904 | 34997 ft | 502 kts | 25° |
| 2026-04-22 12:07 | 23.83069 | 125.47391 | 34997 ft | 502 kts | 25° |
| 2026-04-22 12:07 | 23.89343 | 125.50942 | 34997 ft | 501 kts | 25° |
| 2026-04-22 12:08 | 23.95542 | 125.54442 | 34997 ft | 502 kts | 25° |
| 2026-04-22 12:08 | 24.01789 | 125.57981 | 34997 ft | 502 kts | 25° |
| 2026-04-22 12:09 | 24.07973 | 125.61491 | 34997 ft | 501 kts | 25° |
| 2026-04-22 12:09 | 24.14172 | 125.65016 | 34997 ft | 501 kts | 25° |
| 2026-04-22 12:10 | 24.20358 | 125.68536 | 34997 ft | 501 kts | 25° |
| 2026-04-22 12:10 | 24.26550 | 125.72065 | 34997 ft | 501 kts | 25° |
| 2026-04-22 12:11 | 24.32745 | 125.75599 | 34997 ft | 501 kts | 25° |
| 2026-04-22 12:11 | 24.38929 | 125.79131 | 34997 ft | 501 kts | 25° |
| 2026-04-22 12:12 | 24.45118 | 125.82670 | 34997 ft | 501 kts | 25° |
| 2026-04-22 12:12 | 24.51302 | 125.86210 | 34997 ft | 501 kts | 25° |
| 2026-04-22 12:13 | 24.57479 | 125.89749 | 34997 ft | 501 kts | 25° |
| 2026-04-22 12:13 | 24.63663 | 125.93297 | 34997 ft | 501 kts | 25° |
| 2026-04-22 12:14 | 24.69893 | 125.96875 | 34997 ft | 501 kts | 25° |
| 2026-04-22 12:14 | 24.76065 | 126.00424 | 34997 ft | 501 kts | 25° |
| 2026-04-22 12:15 | 24.82256 | 126.03988 | 34997 ft | 501 kts | 25° |
| 2026-04-22 12:15 | 24.88425 | 126.07543 | 34997 ft | 501 kts | 25° |
| 2026-04-22 12:16 | 24.94566 | 126.11086 | 34997 ft | 501 kts | 25° |
| 2026-04-22 12:16 | 25.00787 | 126.14679 | 35166 ft | 501 kts | 25° |
| 2026-04-22 12:17 | 25.03873 | 126.16464 | 35441 ft | 501 kts | 25° |
| 2026-04-22 12:17 | 25.06995 | 126.18269 | 35720 ft | 500 kts | 25° |
| 2026-04-22 12:17 | 25.10083 | 126.20056 | 35961 ft | 500 kts | 25° |
| 2026-04-22 12:17 | 25.13155 | 126.21835 | 35998 ft | 500 kts | 25° |
| 2026-04-22 12:18 | 25.19313 | 126.25405 | 35997 ft | 499 kts | 25° |
| 2026-04-22 12:18 | 25.25465 | 126.28974 | 35997 ft | 499 kts | 25° |
| 2026-04-22 12:19 | 25.31612 | 126.32546 | 35997 ft | 499 kts | 25° |
| 2026-04-22 12:19 | 25.37758 | 126.36120 | 35997 ft | 499 kts | 25° |
| 2026-04-22 12:20 | 25.43902 | 126.39698 | 35997 ft | 499 kts | 25° |
| 2026-04-22 12:20 | 25.50088 | 126.43304 | 35997 ft | 499 kts | 25° |
| 2026-04-22 12:21 | 25.56196 | 126.46869 | 35997 ft | 499 kts | 25° |
| 2026-04-22 12:21 | 25.62370 | 126.50476 | 35997 ft | 499 kts | 25° |
| 2026-04-22 12:22 | 25.68640 | 126.54144 | 35997 ft | 499 kts | 25° |
| 2026-04-22 12:22 | 25.74791 | 126.57747 | 35997 ft | 499 kts | 25° |
| 2026-04-22 12:23 | 25.80970 | 126.61370 | 35997 ft | 499 kts | 25° |
| 2026-04-22 12:23 | 25.87119 | 126.64980 | 35997 ft | 499 kts | 25° |
| 2026-04-22 12:24 | 25.93255 | 126.68587 | 35997 ft | 499 kts | 25° |
| 2026-04-22 12:24 | 25.99389 | 126.72197 | 35997 ft | 499 kts | 25° |
| 2026-04-22 12:25 | 26.04413 | 126.75157 | 35997 ft | 499 kts | 25° |
| 2026-04-22 12:25 | 26.10714 | 126.78873 | 35997 ft | 499 kts | 25° |
| 2026-04-22 12:26 | 26.16935 | 126.82547 | 35997 ft | 499 kts | 25° |
| 2026-04-22 12:26 | 26.23078 | 126.86179 | 35997 ft | 499 kts | 25° |
| 2026-04-22 12:27 | 26.29220 | 126.89814 | 35997 ft | 499 kts | 25° |
| 2026-04-22 12:27 | 26.35355 | 126.93450 | 35997 ft | 499 kts | 25° |
| 2026-04-22 12:28 | 26.41565 | 126.97135 | 35997 ft | 499 kts | 25° |
| 2026-04-22 12:28 | 26.47699 | 127.00779 | 35997 ft | 499 kts | 25° |
| 2026-04-22 12:29 | 26.53836 | 127.04430 | 35997 ft | 499 kts | 25° |
| 2026-04-22 12:29 | 26.59961 | 127.08077 | 35997 ft | 499 kts | 25° |
| 2026-04-22 12:30 | 26.69165 | 127.13568 | 35997 ft | 499 kts | 25° |
| 2026-04-22 12:31 | 26.75328 | 127.17249 | 35997 ft | 499 kts | 25° |
| 2026-04-22 12:31 | 26.81420 | 127.20893 | 35997 ft | 499 kts | 25° |
| 2026-04-22 12:32 | 26.87555 | 127.24567 | 35997 ft | 499 kts | 25° |
| 2026-04-22 12:32 | 26.96868 | 127.30153 | 35997 ft | 499 kts | 25° |
| 2026-04-22 12:33 | 27.03152 | 127.33928 | 35997 ft | 499 kts | 25° |
| 2026-04-22 12:33 | 27.09273 | 127.37610 | 35997 ft | 499 kts | 25° |
| 2026-04-22 12:34 | 27.15394 | 127.41296 | 35997 ft | 499 kts | 25° |
| 2026-04-22 12:34 | 27.21557 | 127.45007 | 35997 ft | 499 kts | 25° |
| 2026-04-22 12:35 | 27.27683 | 127.48697 | 35997 ft | 499 kts | 26° |
| 2026-04-22 12:35 | 27.33740 | 127.52363 | 35997 ft | 499 kts | 26° |
| 2026-04-22 12:36 | 27.39855 | 127.56071 | 35997 ft | 499 kts | 26° |
| 2026-04-22 12:36 | 27.46027 | 127.59782 | 35988 ft | 498 kts | 21° |
| 2026-04-22 12:37 | 27.52663 | 127.61729 | 35997 ft | 494 kts | 6° |
| 2026-04-22 12:37 | 27.59477 | 127.62592 | 35997 ft | 490 kts | 1° |
| 2026-04-22 12:38 | 27.66318 | 127.63156 | 35997 ft | 489 kts | 1° |
| 2026-04-22 12:38 | 27.73092 | 127.63745 | 35997 ft | 489 kts | 1° |
| 2026-04-22 12:39 | 27.83289 | 127.64668 | 35997 ft | 490 kts | 1° |
| 2026-04-22 12:40 | 27.90124 | 127.65291 | 35997 ft | 490 kts | 1° |
| 2026-04-22 12:40 | 27.96910 | 127.65913 | 35997 ft | 490 kts | 1° |
| 2026-04-22 12:41 | 28.03746 | 127.66543 | 35997 ft | 490 kts | 1° |
| 2026-04-22 12:41 | 28.10544 | 127.67170 | 35997 ft | 490 kts | 1° |
| 2026-04-22 12:42 | 28.17327 | 127.67797 | 35997 ft | 490 kts | 1° |
| 2026-04-22 12:42 | 28.22967 | 127.68318 | 35997 ft | 490 kts | 1° |
| 2026-04-22 12:43 | 28.29763 | 127.68948 | 35997 ft | 490 kts | 1° |
| 2026-04-22 12:43 | 28.36550 | 127.69578 | 35997 ft | 490 kts | 2° |
| 2026-04-22 12:44 | 28.43346 | 127.70209 | 35997 ft | 490 kts | 2° |
| 2026-04-22 12:44 | 28.50133 | 127.70840 | 35997 ft | 490 kts | 2° |
| 2026-04-22 12:45 | 28.56913 | 127.71471 | 35997 ft | 489 kts | 2° |
| 2026-04-22 12:45 | 28.63712 | 127.72105 | 35997 ft | 489 kts | 2° |
| 2026-04-22 12:46 | 28.70552 | 127.72744 | 35997 ft | 489 kts | 2° |
| 2026-04-22 12:46 | 28.77291 | 127.73374 | 35997 ft | 489 kts | 2° |
| 2026-04-22 12:47 | 28.84029 | 127.74005 | 35997 ft | 490 kts | 2° |
| 2026-04-22 12:47 | 28.90907 | 127.74649 | 35997 ft | 490 kts | 2° |
| 2026-04-22 12:48 | 28.97744 | 127.75291 | 35997 ft | 490 kts | 2° |
| 2026-04-22 12:48 | 29.04542 | 127.75930 | 35997 ft | 490 kts | 2° |
| 2026-04-22 12:49 | 29.11327 | 127.76568 | 35997 ft | 490 kts | 2° |
| 2026-04-22 12:49 | 29.18116 | 127.77208 | 35997 ft | 490 kts | 2° |
| 2026-04-22 12:50 | 29.24907 | 127.77849 | 35997 ft | 490 kts | 2° |
| 2026-04-22 12:50 | 29.31735 | 127.78494 | 35997 ft | 490 kts | 2° |
| 2026-04-22 12:51 | 29.38488 | 127.79133 | 35997 ft | 490 kts | 2° |
| 2026-04-22 12:51 | 29.45269 | 127.79775 | 35997 ft | 490 kts | 2° |
| 2026-04-22 12:52 | 29.52199 | 127.80432 | 35997 ft | 490 kts | 2° |
| 2026-04-22 12:52 | 29.58988 | 127.81075 | 35997 ft | 490 kts | 2° |
| 2026-04-22 12:53 | 29.65778 | 127.81721 | 35997 ft | 490 kts | 2° |
| 2026-04-22 12:53 | 29.72573 | 127.82369 | 35997 ft | 490 kts | 2° |
| 2026-04-22 12:54 | 29.79366 | 127.83018 | 35997 ft | 489 kts | 2° |
| 2026-04-22 12:54 | 29.86152 | 127.83278 | 36003 ft | 485 kts | 351° |
| 2026-04-22 12:55 | 29.92884 | 127.81769 | 35997 ft | 483 kts | 342° |
| 2026-04-22 12:55 | 29.99331 | 127.79618 | 35997 ft | 481 kts | 341° |
| 2026-04-22 12:56 | 30.05796 | 127.77476 | 35997 ft | 480 kts | 341° |
| 2026-04-22 12:56 | 30.12266 | 127.75367 | 35997 ft | 481 kts | 341° |
| 2026-04-22 12:57 | 30.18710 | 127.73269 | 35997 ft | 481 kts | 341° |
| 2026-04-22 12:57 | 30.25152 | 127.71173 | 35997 ft | 481 kts | 341° |
| 2026-04-22 12:58 | 30.31638 | 127.69053 | 35997 ft | 481 kts | 341° |
| 2026-04-22 12:58 | 30.38063 | 127.66948 | 35997 ft | 481 kts | 341° |
| 2026-04-22 12:59 | 30.44541 | 127.64820 | 35997 ft | 481 kts | 341° |
| 2026-04-22 12:59 | 30.50983 | 127.62702 | 35997 ft | 481 kts | 341° |
| 2026-04-22 13:00 | 30.57419 | 127.60582 | 35997 ft | 481 kts | 341° |
| 2026-04-22 13:00 | 30.63900 | 127.58456 | 35997 ft | 481 kts | 341° |
| 2026-04-22 13:01 | 30.69334 | 127.56670 | 35997 ft | 481 kts | 341° |
| 2026-04-22 13:01 | 30.75779 | 127.54545 | 35997 ft | 481 kts | 341° |
| 2026-04-22 13:02 | 30.82213 | 127.52419 | 35997 ft | 481 kts | 341° |
| 2026-04-22 13:02 | 30.88642 | 127.50291 | 35997 ft | 481 kts | 341° |
| 2026-04-22 13:03 | 30.95084 | 127.48159 | 35997 ft | 481 kts | 341° |
| 2026-04-22 13:03 | 31.01561 | 127.46016 | 35997 ft | 481 kts | 341° |
| 2026-04-22 13:04 | 31.07993 | 127.43876 | 35997 ft | 481 kts | 341° |
| 2026-04-22 13:04 | 31.14432 | 127.41729 | 35997 ft | 481 kts | 341° |
| 2026-04-22 13:05 | 31.20860 | 127.39583 | 35997 ft | 481 kts | 341° |
| 2026-04-22 13:05 | 31.27300 | 127.37437 | 35997 ft | 481 kts | 341° |
| 2026-04-22 13:06 | 31.33738 | 127.35327 | 35997 ft | 481 kts | 341° |
| 2026-04-22 13:06 | 31.40186 | 127.33206 | 35997 ft | 481 kts | 341° |
| 2026-04-22 13:07 | 31.46665 | 127.31070 | 35997 ft | 481 kts | 341° |
| 2026-04-22 13:07 | 31.53108 | 127.28942 | 35997 ft | 481 kts | 341° |
| 2026-04-22 13:08 | 31.59543 | 127.26818 | 35997 ft | 481 kts | 341° |
| 2026-04-22 13:08 | 31.65996 | 127.24694 | 35997 ft | 481 kts | 341° |
| 2026-04-22 13:09 | 31.72443 | 127.22562 | 35997 ft | 481 kts | 341° |
| 2026-04-22 13:09 | 31.78884 | 127.20436 | 35997 ft | 481 kts | 341° |
| 2026-04-22 13:10 | 31.85448 | 127.18255 | 35997 ft | 481 kts | 341° |
| 2026-04-22 13:10 | 31.91889 | 127.16108 | 35997 ft | 481 kts | 341° |
| 2026-04-22 13:11 | 31.98493 | 127.13905 | 35997 ft | 481 kts | 341° |
| 2026-04-22 13:11 | 32.04936 | 127.11754 | 35997 ft | 481 kts | 341° |
| 2026-04-22 13:12 | 32.11366 | 127.09603 | 35997 ft | 481 kts | 341° |
| 2026-04-22 13:12 | 32.17812 | 127.07434 | 35997 ft | 481 kts | 341° |
| 2026-04-22 13:13 | 32.24248 | 127.05266 | 35997 ft | 481 kts | 341° |
| 2026-04-22 13:13 | 32.30675 | 127.03104 | 35997 ft | 481 kts | 341° |
| 2026-04-22 13:14 | 32.37125 | 127.00941 | 35997 ft | 481 kts | 341° |
| 2026-04-22 13:14 | 32.43548 | 126.98777 | 35997 ft | 481 kts | 341° |
| 2026-04-22 13:15 | 32.50062 | 126.96983 | 36010 ft | 483 kts | 352° |
| 2026-04-22 13:15 | 32.56825 | 126.96944 | 35999 ft | 488 kts | 0° |
| 2026-04-22 13:16 | 32.63643 | 126.97575 | 35997 ft | 490 kts | 2° |
| 2026-04-22 13:16 | 32.70404 | 126.98233 | 35997 ft | 490 kts | 1° |
| 2026-04-22 13:17 | 32.77243 | 126.98854 | 35997 ft | 490 kts | 1° |
| 2026-04-22 13:17 | 32.84029 | 126.99457 | 35997 ft | 489 kts | 1° |
| 2026-04-22 13:18 | 32.90838 | 127.00055 | 35997 ft | 489 kts | 1° |
| 2026-04-22 13:18 | 32.97626 | 127.00653 | 35997 ft | 489 kts | 1° |
| 2026-04-22 13:19 | 33.04419 | 127.01253 | 35997 ft | 489 kts | 1° |
| 2026-04-22 13:19 | 33.11259 | 127.01858 | 35997 ft | 489 kts | 1° |
| 2026-04-22 13:20 | 33.18042 | 127.02459 | 35997 ft | 489 kts | 1° |
| 2026-04-22 13:20 | 33.23733 | 127.02964 | 35997 ft | 489 kts | 1° |
| 2026-04-22 13:21 | 33.30525 | 127.03564 | 35997 ft | 489 kts | 1° |
| 2026-04-22 13:21 | 33.37329 | 127.04170 | 35997 ft | 489 kts | 1° |
| 2026-04-22 13:22 | 33.44122 | 127.04776 | 35997 ft | 489 kts | 1° |
| 2026-04-22 13:22 | 33.50913 | 127.05384 | 35997 ft | 490 kts | 1° |
| 2026-04-22 13:23 | 33.57704 | 127.05991 | 35997 ft | 490 kts | 1° |
| 2026-04-22 13:23 | 33.64541 | 127.06629 | 35997 ft | 490 kts | 1° |
| 2026-04-22 13:24 | 33.71332 | 127.07267 | 35997 ft | 490 kts | 1° |
| 2026-04-22 13:24 | 33.78077 | 127.07900 | 35997 ft | 490 kts | 1° |
| 2026-04-22 13:25 | 33.84917 | 127.08479 | 35997 ft | 489 kts | 1° |
| 2026-04-22 13:25 | 33.91721 | 127.09056 | 35997 ft | 489 kts | 1° |
| 2026-04-22 13:26 | 33.98556 | 127.09640 | 35997 ft | 489 kts | 1° |
| 2026-04-22 13:26 | 34.05349 | 127.10221 | 35997 ft | 489 kts | 1° |
| 2026-04-22 13:27 | 34.12141 | 127.10803 | 35997 ft | 489 kts | 1° |
| 2026-04-22 13:27 | 34.18929 | 127.11382 | 35997 ft | 489 kts | 1° |
| 2026-04-22 13:28 | 34.25724 | 127.11964 | 35997 ft | 489 kts | 1° |
| 2026-04-22 13:28 | 34.32525 | 127.12548 | 35997 ft | 489 kts | 1° |
| 2026-04-22 13:29 | 34.39311 | 127.13133 | 35997 ft | 489 kts | 1° |
| 2026-04-22 13:29 | 34.46149 | 127.13723 | 35997 ft | 489 kts | 1° |
| 2026-04-22 13:30 | 34.52938 | 127.14310 | 35997 ft | 489 kts | 1° |
| 2026-04-22 13:30 | 34.59702 | 127.14896 | 35997 ft | 489 kts | 1° |
| 2026-04-22 13:31 | 34.66533 | 127.15488 | 35997 ft | 489 kts | 1° |
| 2026-04-22 13:31 | 34.73351 | 127.16080 | 35997 ft | 489 kts | 1° |
| 2026-04-22 13:32 | 34.80172 | 127.16674 | 35981 ft | 490 kts | 1° |
| 2026-04-22 13:32 | 34.83574 | 127.16970 | 35854 ft | 490 kts | 1° |
| 2026-04-22 13:32 | 34.86976 | 127.17267 | 35730 ft | 490 kts | 1° |
| 2026-04-22 13:32 | 34.90417 | 127.17567 | 35603 ft | 490 kts | 1° |
| 2026-04-22 13:33 | 34.93819 | 127.17864 | 35478 ft | 490 kts | 1° |
| 2026-04-22 13:33 | 34.97226 | 127.18162 | 35353 ft | 491 kts | 1° |
| 2026-04-22 13:33 | 35.00633 | 127.18460 | 35228 ft | 491 kts | 1° |
| 2026-04-22 13:33 | 35.04042 | 127.18759 | 35103 ft | 491 kts | 1° |
| 2026-04-22 13:34 | 35.07439 | 127.19057 | 34979 ft | 491 kts | 1° |
| 2026-04-22 13:34 | 35.10863 | 127.19357 | 34853 ft | 492 kts | 1° |
| 2026-04-22 13:34 | 35.14273 | 127.19656 | 34728 ft | 492 kts | 1° |
| 2026-04-22 13:34 | 35.17684 | 127.19956 | 34603 ft | 492 kts | 1° |
| 2026-04-22 13:35 | 35.21106 | 127.20257 | 34478 ft | 493 kts | 1° |
| 2026-04-22 13:35 | 35.24526 | 127.20558 | 34353 ft | 493 kts | 1° |
| 2026-04-22 13:35 | 35.27951 | 127.20859 | 34228 ft | 493 kts | 1° |
| 2026-04-22 13:35 | 35.31421 | 127.21165 | 34102 ft | 493 kts | 1° |
| 2026-04-22 13:36 | 35.34837 | 127.21467 | 33977 ft | 494 kts | 1° |
| 2026-04-22 13:36 | 35.38265 | 127.21770 | 33852 ft | 494 kts | 1° |
| 2026-04-22 13:36 | 35.41697 | 127.22073 | 33727 ft | 494 kts | 1° |
| 2026-04-22 13:36 | 35.45126 | 127.22376 | 33602 ft | 495 kts | 1° |
| 2026-04-22 13:37 | 35.48566 | 127.22681 | 33477 ft | 495 kts | 1° |
| 2026-04-22 13:37 | 35.52003 | 127.22985 | 33351 ft | 495 kts | 1° |
| 2026-04-22 13:37 | 35.55437 | 127.23290 | 33204 ft | 495 kts | 1° |
| 2026-04-22 13:37 | 35.58876 | 127.23593 | 33054 ft | 496 kts | 1° |
| 2026-04-22 13:38 | 35.62312 | 127.23897 | 32904 ft | 496 kts | 1° |
| 2026-04-22 13:38 | 35.69208 | 127.24511 | 32604 ft | 497 kts | 1° |
| 2026-04-22 13:38 | 35.72665 | 127.24820 | 32453 ft | 497 kts | 1° |
| 2026-04-22 13:39 | 35.76147 | 127.25131 | 32302 ft | 497 kts | 1° |
| 2026-04-22 13:39 | 35.79565 | 127.25436 | 32153 ft | 497 kts | 1° |
| 2026-04-22 13:39 | 35.83013 | 127.25745 | 32003 ft | 497 kts | 1° |
| 2026-04-22 13:39 | 35.86496 | 127.25928 | 31845 ft | 494 kts | 354° |
| 2026-04-22 13:40 | 35.89861 | 127.25486 | 31700 ft | 490 kts | 348° |
| 2026-04-22 13:40 | 35.93243 | 127.24696 | 31548 ft | 487 kts | 345° |
| 2026-04-22 13:40 | 35.96520 | 127.23723 | 31398 ft | 484 kts | 342° |
| 2026-04-22 13:40 | 35.99765 | 127.22655 | 31247 ft | 483 kts | 342° |
| 2026-04-22 13:41 | 36.03003 | 127.21584 | 31095 ft | 481 kts | 342° |
| 2026-04-22 13:41 | 36.06217 | 127.20542 | 30847 ft | 471 kts | 342° |
| 2026-04-22 13:41 | 36.09350 | 127.19539 | 30595 ft | 459 kts | 342° |
| 2026-04-22 13:41 | 36.12404 | 127.18567 | 30344 ft | 451 kts | 342° |
| 2026-04-22 13:42 | 36.15438 | 127.17604 | 30092 ft | 447 kts | 342° |
| 2026-04-22 13:42 | 36.18439 | 127.16653 | 29841 ft | 443 kts | 342° |
| 2026-04-22 13:42 | 36.21580 | 127.15659 | 29578 ft | 442 kts | 342° |
| 2026-04-22 13:42 | 36.23545 | 127.15044 | 29412 ft | 441 kts | 342° |
| 2026-04-22 13:43 | 36.26516 | 127.14109 | 29137 ft | 437 kts | 342° |
| 2026-04-22 13:43 | 36.29443 | 127.13186 | 28838 ft | 434 kts | 342° |
| 2026-04-22 13:43 | 36.32348 | 127.12268 | 28538 ft | 432 kts | 342° |
| 2026-04-22 13:43 | 36.35277 | 127.11341 | 28235 ft | 429 kts | 342° |
| 2026-04-22 13:44 | 36.38161 | 127.10427 | 27934 ft | 427 kts | 342° |
| 2026-04-22 13:44 | 36.41076 | 127.09502 | 27629 ft | 425 kts | 342° |
| 2026-04-22 13:44 | 36.43890 | 127.08614 | 27333 ft | 423 kts | 342° |
| 2026-04-22 13:44 | 36.46738 | 127.07714 | 27032 ft | 421 kts | 342° |
| 2026-04-22 13:45 | 36.49603 | 127.06804 | 26728 ft | 419 kts | 342° |
| 2026-04-22 13:45 | 36.52417 | 127.05908 | 26428 ft | 417 kts | 342° |
| 2026-04-22 13:45 | 36.55222 | 127.05013 | 26127 ft | 415 kts | 342° |
| 2026-04-22 13:45 | 36.58011 | 127.04122 | 25826 ft | 413 kts | 342° |
| 2026-04-22 13:46 | 36.60787 | 127.03235 | 25526 ft | 411 kts | 342° |
| 2026-04-22 13:46 | 36.63592 | 127.02337 | 25221 ft | 409 kts | 342° |
| 2026-04-22 13:46 | 36.66339 | 127.01458 | 24920 ft | 407 kts | 342° |
| 2026-04-22 13:46 | 36.69072 | 127.00583 | 24620 ft | 405 kts | 342° |
| 2026-04-22 13:47 | 36.71779 | 126.99715 | 24321 ft | 403 kts | 341° |
| 2026-04-22 13:47 | 36.74443 | 126.98592 | 23975 ft | 400 kts | 335° |
| 2026-04-22 13:47 | 36.76982 | 126.97201 | 23575 ft | 396 kts | 332° |
| 2026-04-22 13:47 | 36.79440 | 126.95673 | 23173 ft | 392 kts | 329° |
| 2026-04-22 13:48 | 36.81849 | 126.94112 | 22773 ft | 389 kts | 329° |
| 2026-04-22 13:48 | 36.84244 | 126.92586 | 22374 ft | 387 kts | 330° |
| 2026-04-22 13:48 | 36.86592 | 126.91109 | 21981 ft | 384 kts | 330° |
| 2026-04-22 13:48 | 36.89041 | 126.89577 | 21569 ft | 382 kts | 330° |
| 2026-04-22 13:49 | 36.91417 | 126.88114 | 21165 ft | 380 kts | 333° |
| 2026-04-22 13:49 | 36.93968 | 126.87346 | 20755 ft | 380 kts | 353° |
| 2026-04-22 13:49 | 36.96498 | 126.87672 | 20365 ft | 381 kts | 11° |
| 2026-04-22 13:49 | 36.99130 | 126.89026 | 19943 ft | 383 kts | 24° |
| 2026-04-22 13:50 | 37.01350 | 126.90876 | 19546 ft | 386 kts | 36° |
| 2026-04-22 13:50 | 37.03371 | 126.93108 | 19149 ft | 386 kts | 37° |
| 2026-04-22 13:50 | 37.05529 | 126.95225 | 18732 ft | 383 kts | 30° |
| 2026-04-22 13:50 | 37.07834 | 126.96803 | 18334 ft | 374 kts | 21° |
| 2026-04-22 13:51 | 37.10222 | 126.98006 | 17940 ft | 365 kts | 16° |
| 2026-04-22 13:51 | 37.12682 | 126.98718 | 17533 ft | 358 kts | 4° |
| 2026-04-22 13:51 | 37.15114 | 126.98608 | 17095 ft | 350 kts | 343° |
| 2026-04-22 13:51 | 37.17309 | 126.97417 | 16700 ft | 341 kts | 322° |
| 2026-04-22 13:52 | 37.18947 | 126.95342 | 16299 ft | 332 kts | 301° |
| 2026-04-22 13:52 | 37.19863 | 126.92750 | 16111 ft | 323 kts | 284° |
| 2026-04-22 13:52 | 37.20116 | 126.89966 | 16052 ft | 320 kts | 269° |
| 2026-04-22 13:52 | 37.19867 | 126.87221 | 15908 ft | 317 kts | 261° |
| 2026-04-22 13:53 | 37.19416 | 126.84492 | 15282 ft | 319 kts | 258° |
| 2026-04-22 13:53 | 37.18910 | 126.81796 | 14617 ft | 318 kts | 257° |
| 2026-04-22 13:53 | 37.18433 | 126.79151 | 14458 ft | 312 kts | 259° |
| 2026-04-22 13:53 | 37.17985 | 126.76503 | 14405 ft | 309 kts | 259° |
| 2026-04-22 13:54 | 37.17526 | 126.73798 | 14354 ft | 309 kts | 259° |
| 2026-04-22 13:54 | 37.17068 | 126.71089 | 14302 ft | 310 kts | 259° |
| 2026-04-22 13:54 | 37.16611 | 126.68391 | 14227 ft | 310 kts | 259° |
| 2026-04-22 13:54 | 37.16156 | 126.65703 | 14125 ft | 309 kts | 259° |
| 2026-04-22 13:55 | 37.15707 | 126.63045 | 14024 ft | 308 kts | 259° |
| 2026-04-22 13:55 | 37.15262 | 126.60417 | 13924 ft | 308 kts | 259° |
| 2026-04-22 13:55 | 37.14823 | 126.57817 | 13824 ft | 307 kts | 259° |
| 2026-04-22 13:55 | 37.14377 | 126.55182 | 13724 ft | 307 kts | 259° |
| 2026-04-22 13:56 | 37.13936 | 126.52571 | 13572 ft | 305 kts | 259° |
| 2026-04-22 13:56 | 37.13495 | 126.49957 | 13397 ft | 305 kts | 259° |
| 2026-04-22 13:56 | 37.13057 | 126.47367 | 13222 ft | 305 kts | 259° |
| 2026-04-22 13:56 | 37.12614 | 126.44739 | 13045 ft | 304 kts | 259° |
| 2026-04-22 13:57 | 37.12187 | 126.42214 | 12860 ft | 291 kts | 259° |
| 2026-04-22 13:57 | 37.11779 | 126.39808 | 12607 ft | 268 kts | 259° |
| 2026-04-22 13:57 | 37.11406 | 126.37624 | 12368 ft | 248 kts | 259° |
| 2026-04-22 13:57 | 37.11167 | 126.36227 | 12215 ft | 244 kts | 259° |
| 2026-04-22 13:58 | 37.10800 | 126.34083 | 11977 ft | 239 kts | 259° |
| 2026-04-22 13:58 | 37.10556 | 126.32033 | 11755 ft | 240 kts | 273° |
| 2026-04-22 13:58 | 37.11086 | 126.30043 | 11534 ft | 241 kts | 302° |
| 2026-04-22 13:58 | 37.12312 | 126.28707 | 11317 ft | 245 kts | 326° |
| 2026-04-22 13:59 | 37.14006 | 126.27827 | 11051 ft | 250 kts | 334° |
| 2026-04-22 13:59 | 37.15652 | 126.27102 | 10830 ft | 249 kts | 336° |
| 2026-04-22 13:59 | 37.17291 | 126.26397 | 10633 ft | 248 kts | 336° |
| 2026-04-22 13:59 | 37.18925 | 126.25687 | 10407 ft | 249 kts | 336° |
| 2026-04-22 14:00 | 37.20574 | 126.24965 | 10122 ft | 248 kts | 336° |
| 2026-04-22 14:00 | 37.22183 | 126.24260 | 9849 ft | 246 kts | 336° |
| 2026-04-22 14:00 | 37.23819 | 126.23544 | 9570 ft | 245 kts | 336° |
| 2026-04-22 14:00 | 37.25421 | 126.22842 | 9307 ft | 244 kts | 336° |
| 2026-04-22 14:01 | 37.26995 | 126.22152 | 9171 ft | 241 kts | 336° |
| 2026-04-22 14:01 | 37.28593 | 126.21454 | 8970 ft | 238 kts | 336° |
| 2026-04-22 14:01 | 37.30117 | 126.20789 | 8749 ft | 237 kts | 336° |
| 2026-04-22 14:01 | 37.31698 | 126.20098 | 8520 ft | 236 kts | 336° |
| 2026-04-22 14:02 | 37.33229 | 126.19429 | 8297 ft | 235 kts | 336° |
| 2026-04-22 14:02 | 37.34785 | 126.18748 | 8070 ft | 234 kts | 336° |
| 2026-04-22 14:02 | 37.36251 | 126.18107 | 7855 ft | 234 kts | 336° |
| 2026-04-22 14:02 | 37.37850 | 126.17407 | 7620 ft | 233 kts | 336° |
| 2026-04-22 14:03 | 37.39269 | 126.16785 | 7410 ft | 232 kts | 336° |
| 2026-04-22 14:03 | 37.41025 | 126.16015 | 7150 ft | 231 kts | 336° |
| 2026-04-22 14:03 | 37.42570 | 126.15337 | 6920 ft | 230 kts | 336° |
| 2026-04-22 14:03 | 37.44093 | 126.14668 | 6693 ft | 230 kts | 336° |
| 2026-04-22 14:04 | 37.45567 | 126.14019 | 6484 ft | 222 kts | 336° |
| 2026-04-22 14:04 | 37.47076 | 126.13348 | 6271 ft | 214 kts | 336° |
| 2026-04-22 14:04 | 37.48456 | 126.12719 | 5961 ft | 210 kts | 336° |
| 2026-04-22 14:04 | 37.49848 | 126.12176 | 5637 ft | 208 kts | 340° |
| 2026-04-22 14:05 | 37.50786 | 126.11847 | 5415 ft | 205 kts | 341° |
| 2026-04-22 14:05 | 37.52131 | 126.11251 | 5089 ft | 205 kts | 339° |
| 2026-04-22 14:05 | 37.54848 | 126.12047 | 4427 ft | 203 kts | 40° |
| 2026-04-22 14:06 | 37.55727 | 126.13360 | 4148 ft | 192 kts | 49° |
| 2026-04-22 14:06 | 37.56534 | 126.14687 | 3818 ft | 188 kts | 53° |
| 2026-04-22 14:06 | 37.57167 | 126.16143 | 3468 ft | 187 kts | 65° |
| 2026-04-22 14:06 | 37.57641 | 126.17671 | 3130 ft | 187 kts | 68° |
| 2026-04-22 14:07 | 37.58126 | 126.19326 | 3050 ft | 186 kts | 70° |
| 2026-04-22 14:07 | 37.58551 | 126.20825 | 3002 ft | 186 kts | 70° |
| 2026-04-22 14:07 | 37.58979 | 126.22352 | 2999 ft | 186 kts | 70° |
| 2026-04-22 14:07 | 37.59412 | 126.23899 | 3004 ft | 183 kts | 70° |
| 2026-04-22 14:08 | 37.59831 | 126.25400 | 3026 ft | 178 kts | 70° |
| 2026-04-22 14:08 | 37.60241 | 126.26867 | 2990 ft | 175 kts | 70° |
| 2026-04-22 14:08 | 37.60650 | 126.28330 | 2909 ft | 178 kts | 70° |
| 2026-04-22 14:08 | 37.61065 | 126.29819 | 2842 ft | 180 kts | 71° |
| 2026-04-22 14:09 | 37.61220 | 126.31264 | 2777 ft | 181 kts | 98° |
| 2026-04-22 14:09 | 37.60644 | 126.32677 | 2748 ft | 181 kts | 124° |
| 2026-04-22 14:09 | 37.59823 | 126.33883 | 2692 ft | 180 kts | 133° |
| 2026-04-22 14:09 | 37.58909 | 126.34932 | 2733 ft | 180 kts | 138° |
| 2026-04-22 14:10 | 37.57953 | 126.35931 | 2717 ft | 177 kts | 141° |
| 2026-04-22 14:10 | 37.56960 | 126.36850 | 2402 ft | 170 kts | 144° |
| 2026-04-22 14:10 | 37.55990 | 126.37646 | 2025 ft | 167 kts | 147° |
| 2026-04-22 14:10 | 37.55013 | 126.38389 | 1713 ft | 163 kts | 149° |
| 2026-04-22 14:11 | 37.54050 | 126.39132 | 1474 ft | 160 kts | 148° |
| 2026-04-22 14:11 | 37.53121 | 126.39871 | 1387 ft | 159 kts | 147° |
| 2026-04-22 14:11 | 37.52197 | 126.40644 | 1181 ft | 158 kts | 146° |
| 2026-04-22 14:11 | 37.51308 | 126.41427 | 900 ft | 154 kts | 144° |
| 2026-04-22 14:12 | 37.50435 | 126.42215 | 758 ft | 154 kts | 144° |
| 2026-04-22 14:12 | 37.49535 | 126.43029 | 410 ft | 153 kts | 144° |
| 2026-04-22 14:12 | 37.48675 | 126.43792 | 177 ft | 151 kts | 145° |
| 2026-04-22 14:12 | 37.47826 | 126.44538 | 39 ft | 137 kts | 145° |
| 2026-04-22 14:13 | 37.47357 | 126.44953 | 37 ft | 103 kts | 144° |
| 2026-04-22 14:13 | 37.47175 | 126.45114 | 37 ft | 87 kts | 145° |
| 2026-04-22 14:13 | 37.46800 | 126.45441 | 36 ft | 44 kts | 145° |
| 2026-04-22 14:13 | 37.46607 | 126.45609 | 36 ft | 26 kts | 145° |
| 2026-04-22 14:14 | 37.46524 | 126.45682 | 36 ft | 8 kts | 145° |
| 2026-04-22 14:14 | 37.46501 | 126.45702 | 36 ft | 0 kts | 141° |
| 2026-04-22 14:14 | 37.46486 | 126.45722 | 36 ft | 5 kts | 130° |
| 2026-04-22 14:14 | 37.46470 | 126.45746 | 36 ft | 5 kts | 131° |
| 2026-04-22 14:15 | 37.46447 | 126.45776 | 36 ft | 5 kts | 134° |
| 2026-04-22 14:15 | 37.46424 | 126.45806 | 36 ft | 5 kts | 134° |
| 2026-04-22 14:15 | 37.46404 | 126.45835 | 36 ft | 4 kts | 125° |
| 2026-04-22 14:15 | 37.46388 | 126.45867 | 36 ft | 4 kts | 121° |
| 2026-04-22 14:16 | 37.46374 | 126.45898 | 36 ft | 4 kts | 118° |
| 2026-04-22 14:16 | 37.46361 | 126.45928 | 36 ft | 4 kts | 118° |
| 2026-04-22 14:16 | 37.46349 | 126.45957 | 36 ft | 4 kts | 114° |
| 2026-04-22 14:16 | 37.46337 | 126.45993 | 36 ft | 6 kts | 115° |
| 2026-04-22 14:17 | 37.46314 | 126.46050 | 36 ft | 9 kts | 118° |
| 2026-04-22 14:17 | 37.46306 | 126.46135 | 36 ft | 11 kts | 78° |
| 2026-04-22 14:17 | 37.46347 | 126.46230 | 36 ft | 14 kts | 48° |
| 2026-04-22 14:17 | 37.46421 | 126.46319 | 36 ft | 16 kts | 50° |
| 2026-04-22 14:18 | 37.46479 | 126.46416 | 36 ft | 12 kts | 54° |
| 2026-04-22 14:18 | 37.46521 | 126.46491 | 36 ft | 11 kts | 54° |
| 2026-04-22 14:18 | 37.46565 | 126.46569 | 36 ft | 11 kts | 54° |
| 2026-04-22 14:18 | 37.46588 | 126.46614 | 36 ft | 1 kts | 76° |
| 2026-04-22 14:19 | 37.46587 | 126.46621 | 36 ft | 1 kts | 104° |
| 2026-04-22 14:19 | 37.46583 | 126.46629 | 36 ft | 2 kts | 121° |
| 2026-04-22 14:19 | 37.46566 | 126.46657 | 36 ft | 6 kts | 131° |
| 2026-04-22 14:19 | 37.46544 | 126.46684 | 36 ft | 2 kts | 146° |
| 2026-04-22 14:20 | 37.46522 | 126.46704 | 36 ft | 2 kts | 144° |
| 2026-04-22 14:20 | 37.46517 | 126.46708 | 36 ft | 0 kts | 144° |
| 2026-04-22 14:20 | 37.46512 | 126.46713 | 36 ft | 1 kts | 144° |